createdAt,value
2019-02-12T00:00:52.003Z,3.80
2019-02-12T00:03:21.131Z,3.27
2019-02-12T00:05:50.116Z,4.23
2019-02-12T00:08:19.111Z,3.63
2019-02-12T00:10:48.185Z,2.70
2019-02-12T00:13:17.996Z,4.17
2019-02-12T00:15:47.039Z,3.67
2019-02-12T00:18:16.033Z,3.07
2019-02-12T00:20:45.016Z,3.63
2019-02-12T00:23:14.078Z,2.63
2019-02-12T00:25:43.119Z,3.27
2019-02-12T00:28:12.037Z,3.20
2019-02-12T00:30:41.118Z,3.40
2019-02-12T00:33:10.147Z,3.17
2019-02-12T00:35:39.279Z,2.97
2019-02-12T00:38:08.362Z,2.90
2019-02-12T00:40:37.328Z,3.83
2019-02-12T00:43:06.418Z,3.10
2019-02-12T00:45:35.444Z,3.10
2019-02-12T00:48:04.511Z,3.20
2019-02-12T00:50:33.491Z,4.10
2019-02-12T00:53:02.485Z,3.63
2019-02-12T00:55:31.548Z,3.43
2019-02-12T00:58:00.595Z,3.03
2019-02-12T01:00:29.587Z,3.40
2019-02-12T01:02:58.587Z,2.80
2019-02-12T01:05:27.581Z,3.53
2019-02-12T01:07:56.682Z,2.80
2019-02-12T01:10:25.739Z,2.70
2019-02-12T01:12:54.705Z,3.50
2019-02-12T01:15:23.760Z,2.67
2019-02-12T01:17:52.778Z,3.07
2019-02-12T01:20:21.775Z,3.40
2019-02-12T01:22:50.848Z,3.47
2019-02-12T01:25:19.899Z,3.33
2019-02-12T01:27:48.842Z,3.37
2019-02-12T01:30:18.000Z,4.73
2019-02-12T01:32:47.113Z,2.97
2019-02-12T01:35:16.176Z,3.47
2019-02-12T01:37:45.244Z,3.40
2019-02-12T01:40:14.644Z,3.23
2019-02-12T01:42:43.796Z,2.80
2019-02-12T01:45:13.519Z,4.47
2019-02-12T01:47:42.521Z,2.80
2019-02-12T01:50:13.390Z,3.63
2019-02-12T01:52:42.504Z,2.60
2019-02-12T01:55:11.535Z,3.40
2019-02-12T01:57:40.604Z,3.20
2019-02-12T02:00:12.071Z,2.57
2019-02-12T02:02:41.177Z,3.50
2019-02-12T02:05:10.360Z,2.97
2019-02-12T02:07:39.470Z,3.40
2019-02-12T02:10:10.472Z,3.53
2019-02-12T02:12:39.518Z,4.03
2019-02-12T02:15:09.935Z,2.97
2019-02-12T02:17:38.927Z,3.20
2019-02-12T02:20:08.811Z,2.97
2019-02-12T02:22:37.862Z,2.87
2019-02-12T02:25:08.023Z,2.77
2019-02-12T02:27:36.979Z,4.90
2019-02-12T02:30:07.208Z,3.37
2019-02-12T02:32:36.231Z,3.17
2019-02-12T02:35:05.642Z,3.70
2019-02-12T02:37:34.853Z,4.03
2019-02-12T02:40:04.108Z,2.57
2019-02-12T02:42:33.199Z,3.13
2019-02-12T02:45:02.242Z,3.27
2019-02-12T02:47:31.222Z,2.97
2019-02-12T02:50:00.308Z,3.60
2019-02-12T02:52:29.595Z,3.47
2019-02-12T02:54:58.656Z,2.90
2019-02-12T02:57:27.721Z,3.90
2019-02-12T02:59:56.698Z,2.80
2019-02-12T03:02:25.747Z,3.80
2019-02-12T03:04:54.799Z,3.67
2019-02-12T03:07:23.788Z,3.80
2019-02-12T03:09:52.831Z,2.50
2019-02-12T03:12:21.790Z,3.00
2019-02-12T03:14:50.841Z,3.03
2019-02-12T03:17:19.904Z,3.20
2019-02-12T03:19:48.976Z,3.23
2019-02-12T03:22:18.031Z,4.17
2019-02-12T03:24:47.238Z,3.50
2019-02-12T03:27:16.370Z,6.07
2019-02-12T03:29:45.326Z,4.20
2019-02-12T03:32:14.327Z,3.80
2019-02-12T03:34:43.419Z,3.87
2019-02-12T03:37:12.405Z,3.10
2019-02-12T03:39:41.342Z,3.97
2019-02-12T03:42:10.407Z,4.00
2019-02-12T03:44:39.462Z,4.70
2019-02-12T03:47:08.498Z,3.73
2019-02-12T03:49:37.571Z,3.40
2019-02-12T03:52:12.629Z,4.20
2019-02-12T03:54:37.403Z,4.17
2019-02-12T03:57:06.472Z,3.93
2019-02-12T03:59:35.523Z,3.80
2019-02-12T04:02:04.604Z,3.77
2019-02-12T04:04:33.656Z,3.13
2019-02-12T04:07:02.659Z,5.50
2019-02-12T04:09:31.774Z,4.00
2019-02-12T04:12:00.793Z,4.27
2019-02-12T04:14:29.795Z,4.03
2019-02-12T04:16:58.774Z,4.00
2019-02-12T04:19:27.833Z,3.67
2019-02-12T04:21:56.893Z,3.93
2019-02-12T04:24:25.872Z,3.50
2019-02-12T04:26:54.852Z,3.47
2019-02-12T04:29:23.871Z,4.03
2019-02-12T04:31:52.948Z,5.07
2019-02-12T04:34:21.967Z,3.83
2019-02-12T04:36:51.006Z,4.20
2019-02-12T04:39:20.001Z,4.47
2019-02-12T04:41:49.011Z,4.57
2019-02-12T04:44:17.991Z,5.50
2019-02-12T04:46:47.047Z,3.70
2019-02-12T04:49:16.026Z,3.60
2019-02-12T04:51:45.047Z,5.17
2019-02-12T04:54:14.021Z,4.67
2019-02-12T04:56:43.081Z,3.43
2019-02-12T04:59:12.014Z,4.47
2019-02-12T05:01:41.091Z,4.60
2019-02-12T05:04:10.135Z,4.33
2019-02-12T05:06:39.083Z,4.57
2019-02-12T05:09:22.265Z,4.07
2019-02-12T05:11:53.944Z,3.97
2019-02-12T05:14:22.983Z,4.00
2019-02-12T05:16:52.092Z,3.70
2019-02-12T05:19:21.119Z,4.43
2019-02-12T05:21:50.079Z,3.03
2019-02-12T05:24:19.155Z,4.63
2019-02-12T05:26:48.195Z,3.77
2019-02-12T05:29:18.493Z,3.67
2019-02-12T05:31:47.531Z,3.70
2019-02-12T05:34:16.531Z,4.83
2019-02-12T05:36:45.661Z,3.33
2019-02-12T05:39:14.627Z,3.70
2019-02-12T05:41:43.681Z,4.83
2019-02-12T05:44:12.703Z,3.53
2019-02-12T05:46:41.851Z,4.20
2019-02-12T05:49:10.912Z,4.20
2019-02-12T05:51:39.946Z,4.60
2019-02-12T05:54:08.833Z,4.33
2019-02-12T05:56:37.947Z,5.80
2019-02-12T05:59:06.834Z,5.90
2019-02-12T06:01:35.887Z,6.17
2019-02-12T06:04:04.948Z,5.10
2019-02-12T06:06:33.961Z,6.80
2019-02-12T06:09:04.278Z,7.33
2019-02-12T06:11:33.340Z,5.53
2019-02-12T06:14:02.319Z,5.40
2019-02-12T06:16:31.275Z,4.83
2019-02-12T06:19:00.419Z,5.80
2019-02-12T06:21:29.511Z,4.47
2019-02-12T06:23:58.529Z,4.40
2019-02-12T06:26:27.502Z,4.17
2019-02-12T06:28:56.515Z,5.07
2019-02-12T06:31:25.590Z,6.13
2019-02-12T06:33:54.564Z,8.50
2019-02-12T06:36:23.623Z,8.50
2019-02-12T06:38:52.686Z,7.60
2019-02-12T06:41:21.679Z,7.10
2019-02-12T06:43:50.744Z,7.37
2019-02-12T06:46:19.688Z,7.97
2019-02-12T06:48:48.739Z,5.70
2019-02-12T06:51:17.727Z,5.93
2019-02-12T06:53:46.754Z,6.40
2019-02-12T06:56:15.778Z,5.43
2019-02-12T06:58:44.795Z,3.83
2019-02-12T07:01:13.895Z,6.27
2019-02-12T07:03:51.175Z,5.47
2019-02-12T07:06:44.358Z,5.60
2019-02-12T07:09:35.301Z,5.90
2019-02-12T07:12:47.742Z,4.33
2019-02-12T07:15:23.777Z,4.87
2019-02-12T07:18:34.115Z,4.93
2019-02-12T07:21:30.422Z,4.43
2019-02-12T07:24:12.701Z,4.90
2019-02-12T07:27:18.191Z,5.07
2019-02-12T07:30:15.032Z,5.13
2019-02-12T07:33:13.524Z,5.90
2019-02-12T07:36:16.772Z,5.50
2019-02-12T07:39:15.508Z,6.60
2019-02-12T07:42:59.240Z,6.53
2019-02-12T07:46:09.920Z,5.90
2019-02-12T07:49:11.612Z,5.53
2019-02-12T07:52:16.765Z,6.30
2019-02-12T07:55:14.540Z,6.20
2019-02-12T07:58:20.824Z,7.07
2019-02-12T08:01:30.980Z,7.63
2019-02-12T08:04:36.960Z,8.40
2019-02-12T08:07:31.822Z,9.30
2019-02-12T08:10:45.122Z,7.30
2019-02-12T08:13:48.962Z,8.30
2019-02-12T08:17:14.573Z,8.00
2019-02-12T08:20:08.733Z,8.43
2019-02-12T08:23:04.873Z,8.73
2019-02-12T08:26:20.352Z,8.97
2019-02-12T08:29:24.231Z,10.03
2019-02-12T08:32:24.733Z,9.07
2019-02-12T08:35:22.095Z,9.90
2019-02-12T08:38:09.044Z,9.20
2019-02-12T08:41:07.985Z,8.37
2019-02-12T08:44:17.367Z,7.90
2019-02-12T08:47:17.059Z,7.70
2019-02-12T08:50:25.109Z,6.97
2019-02-12T08:53:25.894Z,6.13
2019-02-12T08:56:25.546Z,6.77
2019-02-12T08:59:19.906Z,8.03
2019-02-12T09:02:12.658Z,7.83
2019-02-12T09:05:13.819Z,7.97
2019-02-12T09:07:48.803Z,6.43
2019-02-12T09:11:17.203Z,6.30
2019-02-12T09:14:12.570Z,7.13
2019-02-12T09:17:24.138Z,7.03
2019-02-12T09:20:33.873Z,6.30
2019-02-12T09:23:33.352Z,7.50
2019-02-12T09:26:15.339Z,7.57
2019-02-12T09:29:30.449Z,5.87
2019-02-12T09:32:41.009Z,8.43
2019-02-12T09:36:18.431Z,8.13
2019-02-12T09:39:22.086Z,7.50
2019-02-12T09:42:28.544Z,6.03
2019-02-12T09:45:33.314Z,4.13
2019-02-12T09:48:15.621Z,4.83
2019-02-12T09:51:06.847Z,4.43
2019-02-12T09:54:08.601Z,6.37
2019-02-12T09:57:06.207Z,6.87
2019-02-12T10:00:03.515Z,7.93
2019-02-12T10:03:22.058Z,7.37
2019-02-12T10:06:22.235Z,8.37
2019-02-12T10:09:47.252Z,6.97
2019-02-12T10:12:45.839Z,7.20
2019-02-12T10:16:03.324Z,6.50
2019-02-12T10:19:15.478Z,6.53
2019-02-12T10:22:30.478Z,6.13
2019-02-12T10:25:32.205Z,6.00
2019-02-12T10:28:48.652Z,6.30
2019-02-12T10:31:23.800Z,6.27
2019-02-12T10:33:57.099Z,7.40
2019-02-12T10:36:27.022Z,6.60
2019-02-12T10:38:56.553Z,6.47
2019-02-12T10:41:26.314Z,5.63
2019-02-12T10:43:55.325Z,6.50
2019-02-12T10:46:25.080Z,5.93
2019-02-12T10:48:54.137Z,5.63
2019-02-12T10:51:29.015Z,6.23
2019-02-12T10:53:58.593Z,4.97
2019-02-12T10:56:27.731Z,5.43
2019-02-12T10:58:56.850Z,7.07
2019-02-12T11:01:25.932Z,5.67
2019-02-12T11:03:54.999Z,5.30
2019-02-12T11:06:23.967Z,5.47
2019-02-12T11:08:52.968Z,4.73
2019-02-12T11:11:22.004Z,3.93
2019-02-12T11:13:51.235Z,4.47
2019-02-12T11:16:20.396Z,5.27
2019-02-12T11:18:49.395Z,4.83
2019-02-12T11:21:18.614Z,4.67
2019-02-12T11:23:47.559Z,7.87
2019-02-12T11:26:16.950Z,6.30
2019-02-12T11:28:46.084Z,4.80
2019-02-12T11:31:16.530Z,5.77
2019-02-12T11:33:45.667Z,6.70
2019-02-12T11:36:14.998Z,5.80
2019-02-12T11:38:44.382Z,4.73
2019-02-12T11:41:13.450Z,6.53
2019-02-12T11:43:42.612Z,7.00
2019-02-12T11:46:11.787Z,4.70
2019-02-12T11:48:40.963Z,5.00
2019-02-12T11:51:10.132Z,4.27
2019-02-12T11:53:39.332Z,6.23
2019-02-12T11:56:08.545Z,6.90
2019-02-12T11:58:37.833Z,7.73
2019-02-12T12:01:20.536Z,5.70
2019-02-12T12:03:49.842Z,6.07
2019-02-12T12:06:19.145Z,4.97
2019-02-12T12:08:48.275Z,6.23
2019-02-12T12:11:17.562Z,7.53
2019-02-12T12:13:46.712Z,7.83
2019-02-12T12:16:16.251Z,6.00
2019-02-12T12:18:45.263Z,6.03
2019-02-12T12:21:14.346Z,8.03
2019-02-12T12:23:43.714Z,6.27
2019-02-12T12:26:12.973Z,8.00
2019-02-12T12:28:44.880Z,6.27
2019-02-12T12:31:13.965Z,6.93
2019-02-12T12:33:43.124Z,8.47
2019-02-12T12:36:12.295Z,7.77
2019-02-12T12:38:41.560Z,7.67
2019-02-12T12:41:10.996Z,10.00
2019-02-12T12:43:40.221Z,9.93
2019-02-12T12:46:09.292Z,7.43
2019-02-12T12:48:40.010Z,8.87
2019-02-12T12:51:09.483Z,8.10
2019-02-12T12:53:38.828Z,6.93
2019-02-12T12:56:08.001Z,8.47
2019-02-12T12:58:37.072Z,8.20
2019-02-12T13:01:06.297Z,7.33
2019-02-12T13:03:35.356Z,10.57
2019-02-12T13:06:05.008Z,8.90
2019-02-12T13:08:34.747Z,8.57
2019-02-12T13:11:04.856Z,8.73
2019-02-12T13:13:33.887Z,10.87
2019-02-12T13:16:03.090Z,7.27
2019-02-12T13:18:32.114Z,8.07
2019-02-12T13:21:01.791Z,9.53
2019-02-12T13:23:31.305Z,9.40
2019-02-12T13:26:00.753Z,9.97
2019-02-12T13:28:30.156Z,5.47
2019-02-12T13:31:01.506Z,6.93
2019-02-12T13:33:31.934Z,5.93
2019-02-12T13:36:06.175Z,6.53
2019-02-12T13:38:35.563Z,8.63
2019-02-12T13:41:04.958Z,8.30
2019-02-12T13:43:35.186Z,7.93
2019-02-12T13:46:04.589Z,7.33
2019-02-12T13:48:52.252Z,7.10
2019-02-12T13:51:22.152Z,7.07
2019-02-12T13:54:01.093Z,8.13
2019-02-12T13:56:30.355Z,7.83
2019-02-12T13:58:59.881Z,7.40
2019-02-12T14:01:29.428Z,7.80
2019-02-12T14:03:58.884Z,7.77
2019-02-12T14:06:28.338Z,8.40
2019-02-12T14:08:57.387Z,7.97
2019-02-12T14:11:26.490Z,7.23
2019-02-12T14:13:56.159Z,7.97
2019-02-12T14:16:25.223Z,8.60
2019-02-12T14:18:54.803Z,7.13
2019-02-12T14:21:23.845Z,6.80
2019-02-12T14:23:56.091Z,5.73
2019-02-12T14:26:25.408Z,5.73
2019-02-12T14:28:57.903Z,6.80
2019-02-12T14:31:27.309Z,6.03
2019-02-12T14:34:03.220Z,6.07
2019-02-12T14:37:20.528Z,5.93
2019-02-12T14:43:37.716Z,8.13
2019-02-12T14:46:11.222Z,7.50
2019-02-12T14:48:42.849Z,6.67
2019-02-12T14:51:11.867Z,7.03
2019-02-12T14:53:41.164Z,6.63
2019-02-12T14:56:11.553Z,7.83
2019-02-12T14:58:41.118Z,7.23
2019-02-12T15:01:10.518Z,5.73
2019-02-12T15:03:40.619Z,6.03
2019-02-12T15:06:10.221Z,5.97
2019-02-12T15:11:36.907Z,5.97
2019-02-12T15:14:06.320Z,7.23
2019-02-12T15:16:40.741Z,7.57
2019-02-12T15:19:13.722Z,7.73
2019-02-12T15:21:43.129Z,7.17
2019-02-12T15:24:13.366Z,7.20
2019-02-12T15:26:52.140Z,7.60
2019-02-12T15:29:35.290Z,5.77
2019-02-12T15:32:14.427Z,6.97
2019-02-12T15:34:43.841Z,5.40
2019-02-12T15:37:12.895Z,5.50
2019-02-12T15:39:41.898Z,7.10
2019-02-12T15:42:11.410Z,6.57
2019-02-12T15:44:41.184Z,7.80
2019-02-12T15:47:12.681Z,8.33
2019-02-12T15:49:42.039Z,7.83
2019-02-12T15:52:11.188Z,6.70
2019-02-12T15:54:40.435Z,9.13
2019-02-12T15:57:09.578Z,8.37
2019-02-12T15:59:38.476Z,8.20
2019-02-12T16:02:07.524Z,7.23
2019-02-12T16:04:36.504Z,7.83
2019-02-12T16:07:05.608Z,7.30
2019-02-12T16:09:35.134Z,8.30
2019-02-12T16:12:06.068Z,7.57
2019-02-12T16:14:35.366Z,7.27
2019-02-12T16:17:04.379Z,7.67
2019-02-12T16:19:33.402Z,6.17
2019-02-12T16:22:02.409Z,5.93
2019-02-12T16:24:31.453Z,7.50
2019-02-12T16:27:00.620Z,7.93
2019-02-12T16:29:29.753Z,9.30
2019-02-12T16:31:58.720Z,7.30
2019-02-12T16:34:27.840Z,7.90
2019-02-12T16:36:57.196Z,7.70
2019-02-12T16:39:26.357Z,7.03
2019-02-12T16:41:55.343Z,7.73
2019-02-12T16:44:25.056Z,7.93
2019-02-12T16:46:54.473Z,7.50
2019-02-12T16:49:23.830Z,6.23
2019-02-12T16:51:52.896Z,7.03
2019-02-12T16:54:21.940Z,5.47
2019-02-12T16:56:50.923Z,7.10
2019-02-12T16:59:19.933Z,5.60
2019-02-12T17:01:49.010Z,6.43
2019-02-12T17:04:17.967Z,8.57
2019-02-12T17:06:46.871Z,5.37
2019-02-12T17:09:15.851Z,9.10
2019-02-12T17:11:44.905Z,8.47
2019-02-12T17:14:13.968Z,6.80
2019-02-12T17:16:43.019Z,7.70
2019-02-12T17:19:12.099Z,5.43
2019-02-12T17:21:41.096Z,8.40
2019-02-12T17:24:10.188Z,5.90
2019-02-12T17:26:39.212Z,6.73
2019-02-12T17:29:08.292Z,7.97
2019-02-12T17:31:37.291Z,7.83
2019-02-12T17:34:06.343Z,6.33
2019-02-12T17:36:35.483Z,7.60
2019-02-12T17:39:05.814Z,5.83
2019-02-12T17:41:34.883Z,6.87
2019-02-12T17:44:04.016Z,8.70
2019-02-12T17:46:33.101Z,5.70
2019-02-12T17:49:02.054Z,7.37
2019-02-12T17:51:31.023Z,5.10
2019-02-12T17:54:00.024Z,8.00
2019-02-12T17:56:29.022Z,8.03
2019-02-12T17:58:58.036Z,8.20
2019-02-12T18:01:27.118Z,7.90
2019-02-12T18:03:56.133Z,8.97
2019-02-12T18:06:25.103Z,7.77
2019-02-12T18:08:54.025Z,8.17
2019-02-12T18:11:22.911Z,8.70
2019-02-12T18:13:51.863Z,6.70
2019-02-12T18:16:20.932Z,6.90
2019-02-12T18:18:50.016Z,7.03
2019-02-12T18:21:18.991Z,7.27
2019-02-12T18:23:47.963Z,7.87
2019-02-12T18:26:17.019Z,5.10
2019-02-12T18:28:46.048Z,7.93
2019-02-12T18:31:15.085Z,8.17
2019-02-12T18:33:44.170Z,8.30
2019-02-12T18:36:13.239Z,7.87
2019-02-12T18:38:42.215Z,8.50
2019-02-12T18:41:11.227Z,5.33
2019-02-12T18:43:40.334Z,8.07
2019-02-12T18:46:09.427Z,7.87
2019-02-12T18:48:38.494Z,9.40
2019-02-12T18:51:07.512Z,7.73
2019-02-12T18:53:36.517Z,6.33
2019-02-12T18:56:05.597Z,7.67
2019-02-12T18:58:34.626Z,7.53
2019-02-12T19:01:03.660Z,8.17
2019-02-12T19:03:32.723Z,8.17
2019-02-12T19:06:01.840Z,7.53
2019-02-12T19:08:30.923Z,7.30
2019-02-12T19:10:59.972Z,5.03
2019-02-12T19:13:28.955Z,5.23
2019-02-12T19:15:58.008Z,6.80
2019-02-12T19:18:27.707Z,5.23
2019-02-12T19:20:56.806Z,6.63
2019-02-12T19:23:25.852Z,7.07
2019-02-12T19:25:54.922Z,6.13
2019-02-12T19:28:23.960Z,5.83
2019-02-12T19:30:53.157Z,3.47
2019-02-12T19:33:22.264Z,4.87
2019-02-12T19:35:51.258Z,7.47
2019-02-12T19:38:20.244Z,5.23
2019-02-12T19:40:49.231Z,5.30
2019-02-12T19:43:18.239Z,4.43
2019-02-12T19:45:47.254Z,4.43
2019-02-12T19:48:16.319Z,4.40
2019-02-12T19:50:45.352Z,5.30
2019-02-12T19:53:14.324Z,6.83
2019-02-12T19:55:43.403Z,4.97
2019-02-12T19:58:12.459Z,5.13
2019-02-12T20:00:41.460Z,7.03
2019-02-12T20:03:10.467Z,6.47
2019-02-12T20:05:39.380Z,7.47
2019-02-12T20:08:08.449Z,5.67
2019-02-12T20:10:37.508Z,5.20
2019-02-12T20:13:06.568Z,6.83
2019-02-12T20:15:35.636Z,6.70
2019-02-12T20:18:04.911Z,5.60
2019-02-12T20:20:33.899Z,5.70
2019-02-12T20:23:02.845Z,8.47
2019-02-12T20:25:31.939Z,5.87
2019-02-12T20:28:00.986Z,7.47
2019-02-12T20:30:30.044Z,6.87
2019-02-12T20:32:59.064Z,7.37
2019-02-12T20:35:36.090Z,10.03
2019-02-12T20:37:58.727Z,9.77
2019-02-12T20:40:27.815Z,7.37
2019-02-12T20:42:56.843Z,8.13
2019-02-12T20:45:25.845Z,8.47
2019-02-12T20:47:54.935Z,8.53
2019-02-12T20:50:24.047Z,9.47
2019-02-12T20:52:53.019Z,7.67
2019-02-12T20:55:22.065Z,8.33
2019-02-12T20:57:51.031Z,9.63
2019-02-12T21:00:20.407Z,8.30
2019-02-12T21:02:49.491Z,9.63
2019-02-12T21:05:18.542Z,10.23
2019-02-12T21:07:47.561Z,7.90
2019-02-12T21:10:16.988Z,6.57
2019-02-12T21:12:46.087Z,7.03
2019-02-12T21:15:17.242Z,8.43
2019-02-12T21:17:46.251Z,9.43
2019-02-12T21:20:15.333Z,8.13
2019-02-12T21:22:44.410Z,7.50
2019-02-12T21:25:13.494Z,7.83
2019-02-12T21:27:42.486Z,8.47
2019-02-12T21:30:13.843Z,6.63
2019-02-12T21:32:42.934Z,6.47
2019-02-12T21:35:12.645Z,8.07
2019-02-12T21:37:41.591Z,7.27
2019-02-12T21:40:13.510Z,6.30
2019-02-12T21:42:42.541Z,6.77
2019-02-12T21:45:12.777Z,6.70
2019-02-12T21:47:42.054Z,6.73
2019-02-12T21:50:11.207Z,6.90
2019-02-12T21:52:40.259Z,7.10
2019-02-12T21:55:09.705Z,6.90
2019-02-12T21:57:38.653Z,5.90
2019-02-12T22:00:10.038Z,7.40
2019-02-12T22:02:38.963Z,6.93
2019-02-12T22:05:09.180Z,6.20
2019-02-12T22:07:38.263Z,5.83
2019-02-12T22:10:09.835Z,6.53
2019-02-12T22:12:38.855Z,5.90
2019-02-12T22:15:10.866Z,5.93
2019-02-12T22:17:40.372Z,5.30
2019-02-12T22:20:10.982Z,5.23
2019-02-12T22:22:40.031Z,6.10
2019-02-12T22:25:09.240Z,6.57
2019-02-12T22:27:40.517Z,4.40
2019-02-12T22:30:14.667Z,4.10
2019-02-12T22:32:43.651Z,5.07
2019-02-12T22:35:14.541Z,5.27
2019-02-12T22:37:43.514Z,4.87
2019-02-12T22:40:13.069Z,4.83
2019-02-12T22:42:42.032Z,5.60
2019-02-12T22:45:13.655Z,5.57
2019-02-12T22:47:42.691Z,5.37
2019-02-12T22:50:11.912Z,4.93
2019-02-12T22:52:41.042Z,3.60
2019-02-12T22:55:10.107Z,6.83
2019-02-12T22:57:39.183Z,8.40
2019-02-12T23:00:18.751Z,5.87
2019-02-12T23:02:47.819Z,5.13
2019-02-12T23:05:16.881Z,5.37
2019-02-12T23:07:45.924Z,7.27
2019-02-12T23:10:15.003Z,5.57
2019-02-12T23:12:44.075Z,5.43
2019-02-12T23:15:13.247Z,5.80
2019-02-12T23:17:42.306Z,6.20
2019-02-12T23:20:11.388Z,5.97
2019-02-12T23:22:40.422Z,7.00
2019-02-12T23:25:09.519Z,5.07
2019-02-12T23:27:38.580Z,6.80
2019-02-12T23:30:08.223Z,6.97
2019-02-12T23:32:37.315Z,6.90
2019-02-12T23:35:06.505Z,6.07
2019-02-12T23:37:35.513Z,8.60
2019-02-12T23:40:04.699Z,9.37
2019-02-12T23:42:33.766Z,7.93
2019-02-12T23:45:02.892Z,7.10
2019-02-12T23:47:31.856Z,7.77
2019-02-12T23:50:00.907Z,7.57
2019-02-12T23:52:29.823Z,6.20
2019-02-12T23:54:58.744Z,7.77
2019-02-12T23:57:27.755Z,8.80
2019-02-12T23:59:56.824Z,8.83
